sensor_id;sensor_type;location;lat;lon;timestamp;temperature;humidity
27645;DHT22;15054;57.152;-2.118;2022-10-28T00:01:18;12.20;99.90
27645;DHT22;15054;57.152;-2.118;2022-10-28T00:03:48;12.20;99.90
27645;DHT22;15054;57.152;-2.118;2022-10-28T00:06:18;12.30;99.90
27645;DHT22;15054;57.152;-2.118;2022-10-28T00:08:49;12.30;99.90
27645;DHT22;15054;57.152;-2.118;2022-10-28T00:11:22;12.40;99.90
27645;DHT22;15054;57.152;-2.118;2022-10-28T00:13:53;12.40;99.90
27645;DHT22;15054;57.152;-2.118;2022-10-28T00:16:29;12.40;99.90
27645;DHT22;15054;57.152;-2.118;2022-10-28T00:19:00;12.40;99.90
27645;DHT22;15054;57.152;-2.118;2022-10-28T00:21:30;12.30;99.90
27645;DHT22;15054;57.152;-2.118;2022-10-28T00:23:58;12.30;99.90
27645;DHT22;15054;57.152;-2.118;2022-10-28T00:26:28;12.30;99.90
27645;DHT22;15054;57.152;-2.118;2022-10-28T00:29:07;12.30;99.90
27645;DHT22;15054;57.152;-2.118;2022-10-28T00:31:36;12.20;99.90
27645;DHT22;15054;57.152;-2.118;2022-10-28T00:34:05;12.20;99.90
27645;DHT22;15054;57.152;-2.118;2022-10-28T00:36:35;12.20;99.90
27645;DHT22;15054;57.152;-2.118;2022-10-28T00:39:14;12.20;99.90
27645;DHT22;15054;57.152;-2.118;2022-10-28T00:41:45;12.10;99.90
27645;DHT22;15054;57.152;-2.118;2022-10-28T00:50:19;12.20;99.90
27645;DHT22;15054;57.152;-2.118;2022-10-28T00:52:46;12.20;99.90
27645;DHT22;15054;57.152;-2.118;2022-10-28T00:55:17;12.10;99.90
27645;DHT22;15054;57.152;-2.118;2022-10-28T00:57:46;12.10;99.90
27645;DHT22;15054;57.152;-2.118;2022-10-28T01:00:14;12.00;99.90
27645;DHT22;15054;57.152;-2.118;2022-10-28T01:02:47;12.10;99.90
27645;DHT22;15054;57.152;-2.118;2022-10-28T01:05:24;12.10;99.90
27645;DHT22;15054;57.152;-2.118;2022-10-28T01:07:56;12.00;99.90
27645;DHT22;15054;57.152;-2.118;2022-10-28T01:13:43;11.90;99.90
27645;DHT22;15054;57.152;-2.118;2022-10-28T01:16:32;11.80;99.90
27645;DHT22;15054;57.152;-2.118;2022-10-28T01:22:41;11.80;99.90
27645;DHT22;15054;57.152;-2.118;2022-10-28T01:27:54;11.90;99.90
27645;DHT22;15054;57.152;-2.118;2022-10-28T01:30:41;11.80;99.90
27645;DHT22;15054;57.152;-2.118;2022-10-28T01:33:40;11.80;99.90
27645;DHT22;15054;57.152;-2.118;2022-10-28T01:36:16;11.90;99.90
27645;DHT22;15054;57.152;-2.118;2022-10-28T01:38:50;11.80;99.90
27645;DHT22;15054;57.152;-2.118;2022-10-28T01:41:36;11.90;99.90
27645;DHT22;15054;57.152;-2.118;2022-10-28T01:47:13;11.90;99.90
27645;DHT22;15054;57.152;-2.118;2022-10-28T01:49:59;11.80;99.90
27645;DHT22;15054;57.152;-2.118;2022-10-28T01:52:32;11.80;99.90
27645;DHT22;15054;57.152;-2.118;2022-10-28T01:55:09;11.80;99.90
27645;DHT22;15054;57.152;-2.118;2022-10-28T01:57:39;11.80;99.90
27645;DHT22;15054;57.152;-2.118;2022-10-28T02:00:11;11.90;99.90
27645;DHT22;15054;57.152;-2.118;2022-10-28T02:02:38;12.00;99.90
27645;DHT22;15054;57.152;-2.118;2022-10-28T02:05:41;12.10;99.90
27645;DHT22;15054;57.152;-2.118;2022-10-28T02:13:16;12.20;99.90
27645;DHT22;15054;57.152;-2.118;2022-10-28T02:16:01;12.20;99.90
27645;DHT22;15054;57.152;-2.118;2022-10-28T02:24:16;12.20;99.90
27645;DHT22;15054;57.152;-2.118;2022-10-28T02:27:04;12.10;99.90
27645;DHT22;15054;57.152;-2.118;2022-10-28T02:29:37;12.30;99.90
27645;DHT22;15054;57.152;-2.118;2022-10-28T02:32:14;12.30;99.90
27645;DHT22;15054;57.152;-2.118;2022-10-28T02:34:44;12.30;99.90
27645;DHT22;15054;57.152;-2.118;2022-10-28T02:37:21;12.40;99.90
27645;DHT22;15054;57.152;-2.118;2022-10-28T02:39:56;12.30;99.90
27645;DHT22;15054;57.152;-2.118;2022-10-28T02:42:27;12.30;99.90
27645;DHT22;15054;57.152;-2.118;2022-10-28T02:45:10;12.30;99.90
27645;DHT22;15054;57.152;-2.118;2022-10-28T02:47:43;12.40;99.90
27645;DHT22;15054;57.152;-2.118;2022-10-28T02:50:17;12.40;99.90
27645;DHT22;15054;57.152;-2.118;2022-10-28T02:52:50;12.40;99.90
27645;DHT22;15054;57.152;-2.118;2022-10-28T02:55:23;12.30;99.90
27645;DHT22;15054;57.152;-2.118;2022-10-28T02:57:51;12.30;99.90
27645;DHT22;15054;57.152;-2.118;2022-10-28T03:00:20;12.30;99.90
27645;DHT22;15054;57.152;-2.118;2022-10-28T03:02:50;12.30;99.90
27645;DHT22;15054;57.152;-2.118;2022-10-28T03:05:18;12.20;99.90
27645;DHT22;15054;57.152;-2.118;2022-10-28T03:07:46;12.20;99.90
27645;DHT22;15054;57.152;-2.118;2022-10-28T03:10:13;12.10;99.90
27645;DHT22;15054;57.152;-2.118;2022-10-28T03:12:40;12.10;99.90
27645;DHT22;15054;57.152;-2.118;2022-10-28T03:15:07;12.00;99.90
27645;DHT22;15054;57.152;-2.118;2022-10-28T03:17:35;11.80;99.90
27645;DHT22;15054;57.152;-2.118;2022-10-28T03:20:02;11.70;99.90
27645;DHT22;15054;57.152;-2.118;2022-10-28T03:22:32;11.60;99.90
27645;DHT22;15054;57.152;-2.118;2022-10-28T03:24:59;11.40;99.90
27645;DHT22;15054;57.152;-2.118;2022-10-28T03:27:27;11.40;99.90
27645;DHT22;15054;57.152;-2.118;2022-10-28T03:29:57;11.30;99.90
27645;DHT22;15054;57.152;-2.118;2022-10-28T03:32:24;11.20;99.90
27645;DHT22;15054;57.152;-2.118;2022-10-28T03:34:51;11.10;99.90
27645;DHT22;15054;57.152;-2.118;2022-10-28T03:37:22;11.00;99.90
27645;DHT22;15054;57.152;-2.118;2022-10-28T03:39:49;11.00;99.90
27645;DHT22;15054;57.152;-2.118;2022-10-28T03:42:16;11.00;99.90
27645;DHT22;15054;57.152;-2.118;2022-10-28T03:44:44;11.00;99.90
27645;DHT22;15054;57.152;-2.118;2022-10-28T03:47:11;11.00;99.90
27645;DHT22;15054;57.152;-2.118;2022-10-28T03:49:38;11.10;99.90
27645;DHT22;15054;57.152;-2.118;2022-10-28T03:52:08;11.20;99.90
27645;DHT22;15054;57.152;-2.118;2022-10-28T03:54:35;11.20;99.90
27645;DHT22;15054;57.152;-2.118;2022-10-28T03:57:02;11.20;99.90
27645;DHT22;15054;57.152;-2.118;2022-10-28T03:59:33;11.20;99.90
27645;DHT22;15054;57.152;-2.118;2022-10-28T04:02:00;11.20;99.90
27645;DHT22;15054;57.152;-2.118;2022-10-28T04:04:28;11.20;99.90
27645;DHT22;15054;57.152;-2.118;2022-10-28T04:06:59;11.30;99.90
27645;DHT22;15054;57.152;-2.118;2022-10-28T04:09:26;11.30;99.90
27645;DHT22;15054;57.152;-2.118;2022-10-28T04:11:53;11.40;99.90
27645;DHT22;15054;57.152;-2.118;2022-10-28T04:14:24;11.40;99.90
27645;DHT22;15054;57.152;-2.118;2022-10-28T04:16:51;11.50;99.90
27645;DHT22;15054;57.152;-2.118;2022-10-28T04:19:19;11.50;99.90
27645;DHT22;15054;57.152;-2.118;2022-10-28T04:21:49;11.50;99.90
27645;DHT22;15054;57.152;-2.118;2022-10-28T04:24:16;11.40;99.90
27645;DHT22;15054;57.152;-2.118;2022-10-28T04:26:43;11.40;99.90
27645;DHT22;15054;57.152;-2.118;2022-10-28T04:29:10;11.40;99.90
27645;DHT22;15054;57.152;-2.118;2022-10-28T04:31:41;11.40;99.90
27645;DHT22;15054;57.152;-2.118;2022-10-28T04:34:08;11.40;99.90
27645;DHT22;15054;57.152;-2.118;2022-10-28T04:36:38;11.40;99.90
27645;DHT22;15054;57.152;-2.118;2022-10-28T04:39:05;11.50;99.90
27645;DHT22;15054;57.152;-2.118;2022-10-28T04:41:32;11.50;99.90
27645;DHT22;15054;57.152;-2.118;2022-10-28T04:44:02;11.50;99.90
27645;DHT22;15054;57.152;-2.118;2022-10-28T04:46:29;11.50;99.90
27645;DHT22;15054;57.152;-2.118;2022-10-28T04:48:56;11.60;99.90
27645;DHT22;15054;57.152;-2.118;2022-10-28T04:51:27;11.60;99.90
27645;DHT22;15054;57.152;-2.118;2022-10-28T04:53:54;11.60;99.90
27645;DHT22;15054;57.152;-2.118;2022-10-28T04:56:21;11.60;99.90
27645;DHT22;15054;57.152;-2.118;2022-10-28T04:58:51;11.70;99.90
27645;DHT22;15054;57.152;-2.118;2022-10-28T05:01:18;11.80;99.90
27645;DHT22;15054;57.152;-2.118;2022-10-28T05:03:46;11.70;99.90
27645;DHT22;15054;57.152;-2.118;2022-10-28T05:06:15;11.80;99.90
27645;DHT22;15054;57.152;-2.118;2022-10-28T05:08:42;11.80;99.90
27645;DHT22;15054;57.152;-2.118;2022-10-28T05:11:10;11.70;99.90
27645;DHT22;15054;57.152;-2.118;2022-10-28T05:13:37;11.70;99.90
27645;DHT22;15054;57.152;-2.118;2022-10-28T05:16:07;11.60;99.90
27645;DHT22;15054;57.152;-2.118;2022-10-28T05:18:34;11.60;99.90
27645;DHT22;15054;57.152;-2.118;2022-10-28T05:21:01;11.50;99.90
27645;DHT22;15054;57.152;-2.118;2022-10-28T05:23:31;11.50;99.90
27645;DHT22;15054;57.152;-2.118;2022-10-28T05:25:59;11.60;99.90
27645;DHT22;15054;57.152;-2.118;2022-10-28T05:28:26;11.60;99.90
27645;DHT22;15054;57.152;-2.118;2022-10-28T05:30:54;11.50;99.90
27645;DHT22;15054;57.152;-2.118;2022-10-28T05:33:22;11.50;99.90
27645;DHT22;15054;57.152;-2.118;2022-10-28T05:35:50;11.50;99.90
27645;DHT22;15054;57.152;-2.118;2022-10-28T05:38:23;11.50;99.90
27645;DHT22;15054;57.152;-2.118;2022-10-28T05:40:51;11.50;99.90
27645;DHT22;15054;57.152;-2.118;2022-10-28T05:43:21;11.50;99.90
27645;DHT22;15054;57.152;-2.118;2022-10-28T05:46:04;11.40;99.90
27645;DHT22;15054;57.152;-2.118;2022-10-28T05:48:32;11.40;99.90
27645;DHT22;15054;57.152;-2.118;2022-10-28T05:51:01;11.40;99.90
27645;DHT22;15054;57.152;-2.118;2022-10-28T05:53:28;11.60;99.90
27645;DHT22;15054;57.152;-2.118;2022-10-28T05:55:58;11.60;99.90
27645;DHT22;15054;57.152;-2.118;2022-10-28T05:58:26;11.70;99.90
27645;DHT22;15054;57.152;-2.118;2022-10-28T06:00:53;11.60;99.90
27645;DHT22;15054;57.152;-2.118;2022-10-28T06:03:22;11.60;99.90
27645;DHT22;15054;57.152;-2.118;2022-10-28T06:06:00;11.60;99.90
27645;DHT22;15054;57.152;-2.118;2022-10-28T06:08:28;11.60;99.90
27645;DHT22;15054;57.152;-2.118;2022-10-28T06:10:56;11.60;99.90
27645;DHT22;15054;57.152;-2.118;2022-10-28T06:13:26;11.70;99.90
27645;DHT22;15054;57.152;-2.118;2022-10-28T06:15:55;11.60;99.90
27645;DHT22;15054;57.152;-2.118;2022-10-28T06:18:26;11.60;99.90
27645;DHT22;15054;57.152;-2.118;2022-10-28T06:20:57;11.60;99.90
27645;DHT22;15054;57.152;-2.118;2022-10-28T06:23:27;11.50;99.90
27645;DHT22;15054;57.152;-2.118;2022-10-28T06:25:59;11.50;99.90
27645;DHT22;15054;57.152;-2.118;2022-10-28T06:28:30;11.40;99.90
27645;DHT22;15054;57.152;-2.118;2022-10-28T06:31:05;11.40;99.90
27645;DHT22;15054;57.152;-2.118;2022-10-28T06:33:33;11.30;99.90
27645;DHT22;15054;57.152;-2.118;2022-10-28T06:36:04;11.40;99.90
27645;DHT22;15054;57.152;-2.118;2022-10-28T06:38:31;11.30;99.90
27645;DHT22;15054;57.152;-2.118;2022-10-28T06:40:58;11.20;99.90
27645;DHT22;15054;57.152;-2.118;2022-10-28T06:43:28;11.10;99.90
27645;DHT22;15054;57.152;-2.118;2022-10-28T06:45:55;11.10;99.90
27645;DHT22;15054;57.152;-2.118;2022-10-28T06:48:26;11.30;99.90
27645;DHT22;15054;57.152;-2.118;2022-10-28T06:50:55;11.40;99.90
27645;DHT22;15054;57.152;-2.118;2022-10-28T06:53:24;11.60;99.90
27645;DHT22;15054;57.152;-2.118;2022-10-28T06:55:55;11.60;99.90
27645;DHT22;15054;57.152;-2.118;2022-10-28T06:58:23;11.70;99.90
27645;DHT22;15054;57.152;-2.118;2022-10-28T07:00:53;11.60;99.90
27645;DHT22;15054;57.152;-2.118;2022-10-28T07:03:21;11.60;99.90
27645;DHT22;15054;57.152;-2.118;2022-10-28T07:05:54;11.60;99.90
27645;DHT22;15054;57.152;-2.118;2022-10-28T07:08:31;11.60;99.90
27645;DHT22;15054;57.152;-2.118;2022-10-28T07:10:59;11.60;99.90
27645;DHT22;15054;57.152;-2.118;2022-10-28T07:13:27;11.60;99.90
27645;DHT22;15054;57.152;-2.118;2022-10-28T07:15:58;11.60;99.90
27645;DHT22;15054;57.152;-2.118;2022-10-28T07:18:28;11.60;99.90
27645;DHT22;15054;57.152;-2.118;2022-10-28T07:21:00;11.60;99.90
27645;DHT22;15054;57.152;-2.118;2022-10-28T07:23:28;11.60;99.90
27645;DHT22;15054;57.152;-2.118;2022-10-28T07:25:59;11.60;99.90
27645;DHT22;15054;57.152;-2.118;2022-10-28T07:28:27;11.70;99.90
27645;DHT22;15054;57.152;-2.118;2022-10-28T07:31:02;11.70;99.90
27645;DHT22;15054;57.152;-2.118;2022-10-28T07:33:30;11.70;99.90
27645;DHT22;15054;57.152;-2.118;2022-10-28T07:35:58;11.80;99.90
27645;DHT22;15054;57.152;-2.118;2022-10-28T07:38:37;11.90;99.90
27645;DHT22;15054;57.152;-2.118;2022-10-28T07:41:06;11.90;99.90
27645;DHT22;15054;57.152;-2.118;2022-10-28T07:43:35;12.00;99.90
27645;DHT22;15054;57.152;-2.118;2022-10-28T07:46:04;12.00;99.90
27645;DHT22;15054;57.152;-2.118;2022-10-28T07:48:33;12.00;99.90
27645;DHT22;15054;57.152;-2.118;2022-10-28T07:51:03;12.00;99.90
27645;DHT22;15054;57.152;-2.118;2022-10-28T07:53:41;12.00;99.90
27645;DHT22;15054;57.152;-2.118;2022-10-28T07:56:36;12.10;99.90
27645;DHT22;15054;57.152;-2.118;2022-10-28T07:59:03;12.10;99.90
27645;DHT22;15054;57.152;-2.118;2022-10-28T08:01:30;12.10;99.90
27645;DHT22;15054;57.152;-2.118;2022-10-28T08:04:00;12.10;99.90
27645;DHT22;15054;57.152;-2.118;2022-10-28T08:06:30;12.20;99.90
27645;DHT22;15054;57.152;-2.118;2022-10-28T08:08:57;12.20;99.90
27645;DHT22;15054;57.152;-2.118;2022-10-28T08:11:24;12.30;99.90
27645;DHT22;15054;57.152;-2.118;2022-10-28T08:13:52;12.30;99.90
27645;DHT22;15054;57.152;-2.118;2022-10-28T08:16:21;12.30;99.90
27645;DHT22;15054;57.152;-2.118;2022-10-28T08:18:48;12.40;99.90
27645;DHT22;15054;57.152;-2.118;2022-10-28T08:21:19;12.40;99.90
27645;DHT22;15054;57.152;-2.118;2022-10-28T08:23:46;12.40;99.90
27645;DHT22;15054;57.152;-2.118;2022-10-28T08:26:14;12.40;99.90
27645;DHT22;15054;57.152;-2.118;2022-10-28T08:28:42;12.50;99.90
27645;DHT22;15054;57.152;-2.118;2022-10-28T08:31:09;12.50;99.90
27645;DHT22;15054;57.152;-2.118;2022-10-28T08:33:40;12.50;99.90
27645;DHT22;15054;57.152;-2.118;2022-10-28T08:36:12;12.60;99.90
27645;DHT22;15054;57.152;-2.118;2022-10-28T08:38:42;12.60;99.90
27645;DHT22;15054;57.152;-2.118;2022-10-28T08:41:23;12.60;99.90
27645;DHT22;15054;57.152;-2.118;2022-10-28T08:49:26;12.60;99.90
27645;DHT22;15054;57.152;-2.118;2022-10-28T08:52:04;12.60;99.90
27645;DHT22;15054;57.152;-2.118;2022-10-28T08:54:54;12.60;99.90
27645;DHT22;15054;57.152;-2.118;2022-10-28T08:57:39;12.60;99.90
27645;DHT22;15054;57.152;-2.118;2022-10-28T09:00:23;12.70;99.90
27645;DHT22;15054;57.152;-2.118;2022-10-28T09:05:24;12.70;99.90
27645;DHT22;15054;57.152;-2.118;2022-10-28T09:07:52;12.70;99.90
27645;DHT22;15054;57.152;-2.118;2022-10-28T09:10:36;12.70;99.90
27645;DHT22;15054;57.152;-2.118;2022-10-28T09:13:23;12.70;99.90
27645;DHT22;15054;57.152;-2.118;2022-10-28T09:21:17;12.80;99.90
27645;DHT22;15054;57.152;-2.118;2022-10-28T09:24:03;12.80;99.90
27645;DHT22;15054;57.152;-2.118;2022-10-28T09:31:55;12.80;99.90
27645;DHT22;15054;57.152;-2.118;2022-10-28T09:36:59;12.90;99.90
27645;DHT22;15054;57.152;-2.118;2022-10-28T09:39:36;12.90;99.90
27645;DHT22;15054;57.152;-2.118;2022-10-28T09:42:09;12.90;99.90
27645;DHT22;15054;57.152;-2.118;2022-10-28T09:44:53;12.90;99.90
27645;DHT22;15054;57.152;-2.118;2022-10-28T09:47:43;12.90;99.90
27645;DHT22;15054;57.152;-2.118;2022-10-28T09:50:18;12.90;99.90
27645;DHT22;15054;57.152;-2.118;2022-10-28T09:55:34;12.90;99.90
27645;DHT22;15054;57.152;-2.118;2022-10-28T09:58:03;12.90;99.90
27645;DHT22;15054;57.152;-2.118;2022-10-28T10:00:31;12.90;99.90
27645;DHT22;15054;57.152;-2.118;2022-10-28T10:03:04;12.90;99.90
27645;DHT22;15054;57.152;-2.118;2022-10-28T10:05:38;12.90;99.90
27645;DHT22;15054;57.152;-2.118;2022-10-28T10:08:16;12.90;99.90
27645;DHT22;15054;57.152;-2.118;2022-10-28T10:10:57;12.80;99.90
27645;DHT22;15054;57.152;-2.118;2022-10-28T10:13:34;12.90;99.90
27645;DHT22;15054;57.152;-2.118;2022-10-28T10:16:32;12.90;99.90
27645;DHT22;15054;57.152;-2.118;2022-10-28T10:19:07;12.80;99.90
27645;DHT22;15054;57.152;-2.118;2022-10-28T10:21:48;12.90;99.90
27645;DHT22;15054;57.152;-2.118;2022-10-28T10:24:27;12.90;99.90
27645;DHT22;15054;57.152;-2.118;2022-10-28T10:27:22;12.90;99.90
27645;DHT22;15054;57.152;-2.118;2022-10-28T10:29:52;13.00;99.90
27645;DHT22;15054;57.152;-2.118;2022-10-28T10:32:31;12.90;99.90
27645;DHT22;15054;57.152;-2.118;2022-10-28T10:37:33;13.00;99.90
27645;DHT22;15054;57.152;-2.118;2022-10-28T10:42:51;13.00;99.90
27645;DHT22;15054;57.152;-2.118;2022-10-28T10:45:39;13.10;99.90
27645;DHT22;15054;57.152;-2.118;2022-10-28T10:48:13;13.10;99.90
27645;DHT22;15054;57.152;-2.118;2022-10-28T10:50:46;13.10;99.90
27645;DHT22;15054;57.152;-2.118;2022-10-28T10:53:30;13.20;99.90
27645;DHT22;15054;57.152;-2.118;2022-10-28T10:56:00;13.30;99.90
27645;DHT22;15054;57.152;-2.118;2022-10-28T10:58:51;13.40;99.90
27645;DHT22;15054;57.152;-2.118;2022-10-28T11:01:23;13.50;99.90
27645;DHT22;15054;57.152;-2.118;2022-10-28T11:03:59;13.50;99.90
27645;DHT22;15054;57.152;-2.118;2022-10-28T11:06:33;13.50;99.90
27645;DHT22;15054;57.152;-2.118;2022-10-28T11:09:28;13.50;99.90
27645;DHT22;15054;57.152;-2.118;2022-10-28T11:11:56;13.60;99.90
27645;DHT22;15054;57.152;-2.118;2022-10-28T11:14:29;13.60;99.90
27645;DHT22;15054;57.152;-2.118;2022-10-28T11:17:01;13.70;99.90
27645;DHT22;15054;57.152;-2.118;2022-10-28T11:19:33;13.70;99.90
27645;DHT22;15054;57.152;-2.118;2022-10-28T11:36:54;13.70;99.90
27645;DHT22;15054;57.152;-2.118;2022-10-28T11:39:20;13.70;99.90
27645;DHT22;15054;57.152;-2.118;2022-10-28T11:42:00;13.70;99.90
27645;DHT22;15054;57.152;-2.118;2022-10-28T11:58:31;13.80;99.90
27645;DHT22;15054;57.152;-2.118;2022-10-28T12:23:39;13.30;99.90
27645;DHT22;15054;57.152;-2.118;2022-10-28T12:26:12;13.20;99.90
27645;DHT22;15054;57.152;-2.118;2022-10-28T12:28:48;13.20;99.90
27645;DHT22;15054;57.152;-2.118;2022-10-28T12:31:29;13.10;99.90
27645;DHT22;15054;57.152;-2.118;2022-10-28T12:34:05;13.10;99.90
27645;DHT22;15054;57.152;-2.118;2022-10-28T12:36:49;13.10;99.90
27645;DHT22;15054;57.152;-2.118;2022-10-28T12:39:31;13.10;99.90
27645;DHT22;15054;57.152;-2.118;2022-10-28T12:42:42;13.00;99.90
27645;DHT22;15054;57.152;-2.118;2022-10-28T12:45:15;13.10;99.90
27645;DHT22;15054;57.152;-2.118;2022-10-28T12:47:58;13.10;99.90
27645;DHT22;15054;57.152;-2.118;2022-10-28T12:53:23;13.20;99.90
27645;DHT22;15054;57.152;-2.118;2022-10-28T12:56:00;13.20;99.90
27645;DHT22;15054;57.152;-2.118;2022-10-28T12:59:21;13.20;99.90
27645;DHT22;15054;57.152;-2.118;2022-10-28T13:01:51;13.10;99.90
27645;DHT22;15054;57.152;-2.118;2022-10-28T13:04:21;13.10;99.90
27645;DHT22;15054;57.152;-2.118;2022-10-28T13:10:36;13.10;99.90
27645;DHT22;15054;57.152;-2.118;2022-10-28T13:22:32;12.80;99.90
27645;DHT22;15054;57.152;-2.118;2022-10-28T13:27:44;12.80;99.90
27645;DHT22;15054;57.152;-2.118;2022-10-28T13:30:16;12.70;99.90
27645;DHT22;15054;57.152;-2.118;2022-10-28T13:32:49;12.70;99.90
27645;DHT22;15054;57.152;-2.118;2022-10-28T13:35:23;12.70;99.90
27645;DHT22;15054;57.152;-2.118;2022-10-28T13:37:52;12.70;99.90
27645;DHT22;15054;57.152;-2.118;2022-10-28T13:43:02;12.80;99.90
27645;DHT22;15054;57.152;-2.118;2022-10-28T13:45:52;12.80;99.90
27645;DHT22;15054;57.152;-2.118;2022-10-28T13:48:31;12.80;99.90
27645;DHT22;15054;57.152;-2.118;2022-10-28T13:59:26;12.70;99.90
27645;DHT22;15054;57.152;-2.118;2022-10-28T14:01:58;12.60;99.90
27645;DHT22;15054;57.152;-2.118;2022-10-28T14:05:11;12.60;99.90
27645;DHT22;15054;57.152;-2.118;2022-10-28T14:08:16;12.70;99.90
27645;DHT22;15054;57.152;-2.118;2022-10-28T14:11:05;12.60;99.90
27645;DHT22;15054;57.152;-2.118;2022-10-28T14:22:00;12.60;99.90
27645;DHT22;15054;57.152;-2.118;2022-10-28T14:24:36;12.60;99.90
27645;DHT22;15054;57.152;-2.118;2022-10-28T14:29:46;12.50;99.90
27645;DHT22;15054;57.152;-2.118;2022-10-28T14:46:06;12.30;99.90
27645;DHT22;15054;57.152;-2.118;2022-10-28T14:51:18;12.30;99.90
27645;DHT22;15054;57.152;-2.118;2022-10-28T14:53:56;12.20;99.90
27645;DHT22;15054;57.152;-2.118;2022-10-28T14:56:28;12.20;99.90
27645;DHT22;15054;57.152;-2.118;2022-10-28T14:59:12;12.10;99.90
27645;DHT22;15054;57.152;-2.118;2022-10-28T15:02:08;12.10;99.90
27645;DHT22;15054;57.152;-2.118;2022-10-28T15:04:38;12.10;99.90
27645;DHT22;15054;57.152;-2.118;2022-10-28T15:07:13;12.10;99.90
27645;DHT22;15054;57.152;-2.118;2022-10-28T15:09:43;12.10;99.90
27645;DHT22;15054;57.152;-2.118;2022-10-28T15:12:16;12.00;99.90
27645;DHT22;15054;57.152;-2.118;2022-10-28T15:14:49;12.00;99.90
27645;DHT22;15054;57.152;-2.118;2022-10-28T15:17:27;12.00;99.90
27645;DHT22;15054;57.152;-2.118;2022-10-28T15:19:57;12.10;99.90
27645;DHT22;15054;57.152;-2.118;2022-10-28T15:22:30;12.00;99.90
27645;DHT22;15054;57.152;-2.118;2022-10-28T15:25:11;12.00;99.90
27645;DHT22;15054;57.152;-2.118;2022-10-28T15:27:50;11.90;99.90
27645;DHT22;15054;57.152;-2.118;2022-10-28T15:30:21;11.80;99.90
27645;DHT22;15054;57.152;-2.118;2022-10-28T15:33:18;11.80;99.90
27645;DHT22;15054;57.152;-2.118;2022-10-28T15:35:52;11.70;99.90
27645;DHT22;15054;57.152;-2.118;2022-10-28T15:43:57;11.60;99.90
27645;DHT22;15054;57.152;-2.118;2022-10-28T15:46:28;11.60;99.90
27645;DHT22;15054;57.152;-2.118;2022-10-28T15:49:36;11.50;99.90
27645;DHT22;15054;57.152;-2.118;2022-10-28T15:52:19;11.40;99.90
27645;DHT22;15054;57.152;-2.118;2022-10-28T15:54:59;11.40;99.90
27645;DHT22;15054;57.152;-2.118;2022-10-28T15:57:30;11.30;99.90
27645;DHT22;15054;57.152;-2.118;2022-10-28T16:00:29;11.30;99.90
27645;DHT22;15054;57.152;-2.118;2022-10-28T16:02:58;11.30;99.90
27645;DHT22;15054;57.152;-2.118;2022-10-28T16:08:30;11.20;99.90
27645;DHT22;15054;57.152;-2.118;2022-10-28T16:11:03;11.20;99.90
27645;DHT22;15054;57.152;-2.118;2022-10-28T16:13:37;11.10;99.90
27645;DHT22;15054;57.152;-2.118;2022-10-28T16:16:11;11.10;99.90
27645;DHT22;15054;57.152;-2.118;2022-10-28T16:18:44;11.00;99.90
27645;DHT22;15054;57.152;-2.118;2022-10-28T16:21:17;11.00;99.90
27645;DHT22;15054;57.152;-2.118;2022-10-28T16:23:47;11.00;99.90
27645;DHT22;15054;57.152;-2.118;2022-10-28T16:26:16;10.90;99.90
27645;DHT22;15054;57.152;-2.118;2022-10-28T16:28:43;10.90;99.90
27645;DHT22;15054;57.152;-2.118;2022-10-28T16:31:14;10.80;99.90
27645;DHT22;15054;57.152;-2.118;2022-10-28T16:33:43;10.70;99.90
27645;DHT22;15054;57.152;-2.118;2022-10-28T16:36:12;10.60;99.90
27645;DHT22;15054;57.152;-2.118;2022-10-28T16:38:39;10.50;99.90
27645;DHT22;15054;57.152;-2.118;2022-10-28T16:41:15;10.60;99.90
27645;DHT22;15054;57.152;-2.118;2022-10-28T16:43:43;10.70;99.90
27645;DHT22;15054;57.152;-2.118;2022-10-28T16:46:11;10.70;99.90
27645;DHT22;15054;57.152;-2.118;2022-10-28T16:48:39;10.70;99.90
27645;DHT22;15054;57.152;-2.118;2022-10-28T16:51:20;10.80;99.90
27645;DHT22;15054;57.152;-2.118;2022-10-28T16:53:47;10.80;99.90
27645;DHT22;15054;57.152;-2.118;2022-10-28T16:56:17;10.70;99.90
27645;DHT22;15054;57.152;-2.118;2022-10-28T16:58:44;10.70;99.90
27645;DHT22;15054;57.152;-2.118;2022-10-28T17:01:18;10.70;99.90
27645;DHT22;15054;57.152;-2.118;2022-10-28T17:03:46;10.70;99.90
27645;DHT22;15054;57.152;-2.118;2022-10-28T17:06:13;10.60;99.90
27645;DHT22;15054;57.152;-2.118;2022-10-28T17:08:40;10.60;99.90
27645;DHT22;15054;57.152;-2.118;2022-10-28T17:11:28;10.60;99.90
27645;DHT22;15054;57.152;-2.118;2022-10-28T17:13:55;10.50;99.90
27645;DHT22;15054;57.152;-2.118;2022-10-28T17:16:25;10.60;99.90
27645;DHT22;15054;57.152;-2.118;2022-10-28T17:18:53;10.60;99.90
27645;DHT22;15054;57.152;-2.118;2022-10-28T17:21:20;10.60;99.90
27645;DHT22;15054;57.152;-2.118;2022-10-28T17:23:47;10.70;99.90
27645;DHT22;15054;57.152;-2.118;2022-10-28T17:26:14;10.70;99.90
27645;DHT22;15054;57.152;-2.118;2022-10-28T17:28:43;10.60;99.90
27645;DHT22;15054;57.152;-2.118;2022-10-28T17:31:10;10.70;99.90
27645;DHT22;15054;57.152;-2.118;2022-10-28T17:33:37;10.60;99.90
27645;DHT22;15054;57.152;-2.118;2022-10-28T17:36:06;10.50;99.90
27645;DHT22;15054;57.152;-2.118;2022-10-28T17:38:34;10.40;99.90
27645;DHT22;15054;57.152;-2.118;2022-10-28T17:41:01;10.50;99.90
27645;DHT22;15054;57.152;-2.118;2022-10-28T17:43:29;10.40;99.90
27645;DHT22;15054;57.152;-2.118;2022-10-28T17:46:05;10.40;99.90
27645;DHT22;15054;57.152;-2.118;2022-10-28T17:48:33;10.50;99.90
27645;DHT22;15054;57.152;-2.118;2022-10-28T17:51:06;10.50;99.90
27645;DHT22;15054;57.152;-2.118;2022-10-28T17:53:41;10.50;99.90
27645;DHT22;15054;57.152;-2.118;2022-10-28T17:56:12;10.40;99.90
27645;DHT22;15054;57.152;-2.118;2022-10-28T17:58:40;10.50;99.90
27645;DHT22;15054;57.152;-2.118;2022-10-28T18:01:09;10.50;99.90
27645;DHT22;15054;57.152;-2.118;2022-10-28T18:03:39;10.40;99.90
27645;DHT22;15054;57.152;-2.118;2022-10-28T18:06:10;10.40;99.90
27645;DHT22;15054;57.152;-2.118;2022-10-28T18:08:40;10.40;99.90
27645;DHT22;15054;57.152;-2.118;2022-10-28T18:11:10;10.50;99.90
27645;DHT22;15054;57.152;-2.118;2022-10-28T18:13:41;10.60;99.90
27645;DHT22;15054;57.152;-2.118;2022-10-28T18:16:13;10.60;99.90
27645;DHT22;15054;57.152;-2.118;2022-10-28T18:18:42;10.50;99.90
27645;DHT22;15054;57.152;-2.118;2022-10-28T18:21:11;10.50;99.90
27645;DHT22;15054;57.152;-2.118;2022-10-28T18:23:39;10.50;99.90
27645;DHT22;15054;57.152;-2.118;2022-10-28T18:26:12;10.50;99.90
27645;DHT22;15054;57.152;-2.118;2022-10-28T18:28:44;10.40;99.90
27645;DHT22;15054;57.152;-2.118;2022-10-28T18:31:18;10.50;99.90
27645;DHT22;15054;57.152;-2.118;2022-10-28T18:33:46;10.40;99.90
27645;DHT22;15054;57.152;-2.118;2022-10-28T18:36:18;10.50;99.90
27645;DHT22;15054;57.152;-2.118;2022-10-28T18:38:46;10.60;99.90
27645;DHT22;15054;57.152;-2.118;2022-10-28T18:41:23;10.70;99.90
27645;DHT22;15054;57.152;-2.118;2022-10-28T18:43:58;10.70;99.90
27645;DHT22;15054;57.152;-2.118;2022-10-28T18:46:27;10.60;99.90